Time;durP1;ratioP1;P1;durP2;ratioP2;P2;SDS_P1;SDS_P2;PMS_P1;PMS_P2;Temp;Humidity;BMP_temperature;BMP_pressure;BME280_temperature;BME280_humidity;BME280_pressure;Samples;Min_cycle;Max_cycle;Signal;HPM_P1;HPM_P2
2022/01/23 00:02:06;;;;;;;6.28;3.35;;;7.90;99.90;;;;;;4991924;28;20065;-83
2022/01/23 00:04:32;;;;;;;10.90;3.60;;;7.90;99.90;;;;;;4989401;28;20454;-85
2022/01/23 00:07:03;;;;;;;9.68;3.97;;;7.80;99.90;;;;;;4989240;28;20022;-85
2022/01/23 00:09:29;;;;;;;6.50;4.30;;;7.80;99.90;;;;;;4985678;28;20081;-83
2022/01/23 00:11:55;;;;;;;6.82;4.20;;;7.80;99.90;;;;;;4981709;28;20023;-84
2022/01/23 00:17:17;;;;;;;12.75;4.00;;;7.80;99.90;;;;;;4980554;28;20454;-85
2022/01/23 00:19:45;;;;;;;7.35;3.63;;;7.80;99.90;;;;;;4978570;28;20062;-84
2022/01/23 00:22:12;;;;;;;7.68;3.97;;;7.90;99.90;;;;;;4979643;28;20030;-84
2022/01/23 00:32:45;;;;;;;;;;;7.90;99.90;;;;;;4979210;28;20043;-85
2022/01/23 00:35:11;;;;;;;9.73;4.07;;;7.90;99.90;;;;;;4978606;28;19910;-85
2022/01/23 00:37:37;;;;;;;13.07;4.45;;;7.90;99.90;;;;;;4978681;28;20031;-85
2022/01/23 00:40:05;;;;;;;10.05;4.20;;;7.90;99.90;;;;;;4978705;28;20388;-85
2022/01/23 00:42:31;;;;;;;8.32;4.25;;;7.90;99.90;;;;;;4977645;28;20027;-85
2022/01/23 00:45:12;;;;;;;8.40;3.75;;;7.90;99.90;;;;;;4976443;28;20039;-85
2022/01/23 00:47:38;;;;;;;6.88;4.30;;;7.90;99.90;;;;;;4976565;28;20050;-85
2022/01/23 00:50:04;;;;;;;12.40;4.75;;;7.90;99.90;;;;;;4959758;28;20446;-84
2022/01/23 00:52:30;;;;;;;7.40;3.97;;;7.90;99.90;;;;;;4960599;28;20062;-85
2022/01/23 00:54:55;;;;;;;8.27;3.90;;;8.00;99.90;;;;;;4976595;28;20133;-86
2022/01/23 00:57:21;;;;;;;10.50;4.18;;;8.00;99.90;;;;;;4960375;28;20085;-85
2022/01/23 00:59:47;;;;;;;13.85;4.75;;;8.00;99.90;;;;;;4976661;28;20126;-85
2022/01/23 01:02:12;;;;;;;9.63;4.53;;;8.00;99.90;;;;;;4960067;28;20117;-85
2022/01/23 01:04:38;;;;;;;4.45;3.40;;;8.00;99.90;;;;;;4960328;28;20035;-86
2022/01/23 01:07:04;;;;;;;9.02;4.05;;;7.90;99.90;;;;;;4976692;28;20042;-85
2022/01/23 01:09:31;;;;;;;13.13;4.72;;;7.90;99.90;;;;;;4975830;28;20062;-85
2022/01/23 01:12:07;;;;;;;5.75;3.83;;;7.90;99.90;;;;;;4957472;28;20113;-84
2022/01/23 01:35:59;;;;;;;11.38;4.75;;;8.00;99.90;;;;;;4978538;28;20039;-83
2022/01/23 01:38:25;;;;;;;7.32;4.43;;;8.00;99.90;;;;;;4977828;28;20018;-84
2022/01/23 01:40:53;;;;;;;12.25;5.00;;;8.00;99.90;;;;;;4976267;28;20114;-85
2022/01/23 01:43:18;;;;;;;13.77;5.30;;;8.00;99.90;;;;;;4976234;28;20468;-84
2022/01/23 01:45:44;;;;;;;9.98;4.78;;;8.00;99.90;;;;;;4976555;28;20066;-84
2022/01/23 01:48:13;;;;;;;13.15;5.38;;;8.00;99.90;;;;;;4976450;28;20398;-84
2022/01/23 01:50:46;;;;;;;10.55;6.03;;;7.90;99.90;;;;;;4977905;28;20387;-83
2022/01/23 01:53:23;;;;;;;8.90;5.28;;;7.90;99.90;;;;;;4978054;28;20019;-81
2022/01/23 01:55:53;;;;;;;13.15;5.88;;;7.90;99.90;;;;;;4976152;28;20129;-82
2022/01/23 02:09:27;;;;;;;9.80;5.53;;;8.00;99.90;;;;;;4979532;28;20045;-82
2022/01/23 02:54:59;;;;;;;11.30;5.80;;;7.80;99.90;;;;;;4978319;28;20035;-82
2022/01/23 03:00:23;;;;;;;12.82;6.43;;;7.90;99.90;;;;;;4970475;28;20031;-82
2022/01/23 03:02:52;;;;;;;13.23;5.80;;;7.90;99.90;;;;;;4985172;28;20064;-82
2022/01/23 03:05:36;;;;;;;24.45;7.43;;;7.90;99.90;;;;;;4998495;28;20108;-82
2022/01/23 03:10:40;;;;;;;9.63;5.78;;;7.70;99.90;;;;;;4998339;28;20398;-83
2022/01/23 03:13:40;;;;;;;15.73;7.05;;;7.70;99.90;;;;;;4998171;28;20046;-82
2022/01/23 03:24:59;;;;;;;14.43;5.75;;;7.80;99.90;;;;;;4999025;28;20613;-82
2022/01/23 03:30:02;;;;;;;17.27;6.57;;;7.70;99.90;;;;;;4978721;28;20027;-84
2022/01/23 03:32:41;;;;;;;14.07;6.40;;;7.70;99.90;;;;;;4977610;28;20040;-83
2022/01/23 03:35:07;;;;;;;16.50;6.28;;;7.70;99.90;;;;;;4979146;28;20030;-82
2022/01/23 03:37:33;;;;;;;12.30;6.32;;;7.60;99.90;;;;;;4977534;28;20035;-82
2022/01/23 03:39:58;;;;;;;14.70;6.78;;;7.60;99.90;;;;;;4977402;28;20058;-81
2022/01/23 03:42:25;;;;;;;13.65;6.32;;;7.60;99.90;;;;;;4977122;28;20034;-81
2022/01/23 03:45:22;;;;;;;16.23;7.00;;;7.70;99.90;;;;;;4977565;28;20530;-82
2022/01/23 03:50:30;;;;;;;18.27;7.10;;;7.50;99.90;;;;;;4975994;28;20058;-82
2022/01/23 03:52:56;;;;;;;11.55;6.20;;;7.50;99.90;;;;;;4975076;28;20035;-83
2022/01/23 03:55:21;;;;;;;12.07;6.70;;;7.60;99.90;;;;;;4974625;28;20022;-82
2022/01/23 03:57:47;;;;;;;12.63;5.72;;;7.60;99.90;;;;;;4978889;28;20128;-82
2022/01/23 04:00:16;;;;;;;12.48;6.10;;;7.60;99.90;;;;;;4980507;28;20121;-82
2022/01/23 04:02:42;;;;;;;11.23;6.60;;;7.60;99.90;;;;;;4981228;28;20019;-82
2022/01/23 04:05:08;;;;;;;14.98;7.18;;;7.60;99.90;;;;;;4980468;28;20066;-82
2022/01/23 04:07:36;;;;;;;11.05;6.18;;;7.70;99.90;;;;;;4980110;28;20049;-82
2022/01/23 04:10:03;;;;;;;13.10;6.25;;;7.70;99.90;;;;;;4980957;28;20015;-82
2022/01/23 04:13:12;;;;;;;14.90;6.40;;;7.70;99.90;;;;;;4981017;28;20434;-82
2022/01/23 04:15:43;;;;;;;14.85;6.00;;;7.70;99.90;;;;;;4980003;28;20074;-81
2022/01/23 04:19:02;;;;;;;9.80;5.78;;;7.70;99.90;;;;;;4981568;28;20031;-82
2022/01/23 05:04:15;;;;;;;3.65;3.05;;;7.80;99.90;;;;;;4984495;28;20435;-82
2022/01/23 05:06:58;;;;;;;4.53;3.10;;;7.80;99.90;;;;;;4982294;28;20520;-81
2022/01/23 05:09:32;;;;;;;6.90;3.67;;;7.80;99.90;;;;;;4984017;28;20057;-81
2022/01/23 05:12:06;;;;;;;7.65;3.67;;;7.70;99.90;;;;;;4983619;28;20450;-81
2022/01/23 05:14:39;;;;;;;5.75;3.90;;;7.60;99.90;;;;;;4982545;28;20035;-82
2022/01/23 05:17:08;;;;;;;4.93;2.70;;;7.60;99.90;;;;;;4982236;28;20117;-81
2022/01/23 05:19:34;;;;;;;7.45;3.10;;;7.60;99.90;;;;;;4983276;28;20419;-81
2022/01/23 05:24:51;;;;;;;4.20;2.78;;;7.70;99.90;;;;;;4983308;28;20035;-81
2022/01/23 05:27:17;;;;;;;5.03;2.78;;;7.70;99.90;;;;;;4966719;28;20057;-81
2022/01/23 05:29:42;;;;;;;7.03;3.30;;;7.70;99.90;;;;;;4981342;28;20082;-81
2022/01/23 05:32:11;;;;;;;3.83;2.28;;;7.70;99.90;;;;;;4982669;28;20034;-81
2022/01/23 05:34:37;;;;;;;4.53;2.50;;;7.70;99.90;;;;;;4982830;28;20034;-81
2022/01/23 05:37:03;;;;;;;3.53;2.42;;;7.80;99.90;;;;;;4981113;28;20018;-81
2022/01/23 05:39:32;;;;;;;4.65;2.20;;;7.80;99.90;;;;;;4981310;28;20022;-81
2022/01/23 05:42:07;;;;;;;8.10;2.90;;;7.80;99.90;;;;;;4980344;28;20022;-81
2022/01/23 05:44:37;;;;;;;7.68;3.28;;;7.80;99.90;;;;;;4979674;28;20041;-81
2022/01/23 05:47:05;;;;;;;10.30;4.25;;;7.70;99.90;;;;;;4979303;28;20023;-81
2022/01/23 05:49:31;;;;;;;7.90;3.70;;;7.70;99.90;;;;;;4981527;28;20530;-82
2022/01/23 05:51:58;;;;;;;5.32;3.67;;;7.70;99.90;;;;;;4982496;28;20030;-81
2022/01/23 05:54:24;;;;;;;8.10;3.30;;;7.70;99.90;;;;;;4980631;28;20070;-82
2022/01/23 05:56:51;;;;;;;7.32;3.92;;;7.70;99.90;;;;;;4978146;28;20313;-82
2022/01/23 05:59:17;;;;;;;3.40;2.63;;;7.70;99.90;;;;;;4980408;28;20030;-81
2022/01/23 06:01:44;;;;;;;10.30;4.45;;;7.70;99.90;;;;;;4980115;28;20058;-84
2022/01/23 06:04:09;;;;;;;4.18;3.60;;;7.70;99.90;;;;;;4976958;28;20561;-81
2022/01/23 06:06:35;;;;;;;4.40;2.95;;;7.60;99.90;;;;;;4981067;28;20027;-81
2022/01/23 06:09:01;;;;;;;5.60;3.78;;;7.60;99.90;;;;;;4980060;28;20035;-83
2022/01/23 06:11:30;;;;;;;4.85;3.42;;;7.60;99.90;;;;;;4979437;28;20035;-82
2022/01/23 06:13:55;;;;;;;5.13;2.85;;;7.60;99.90;;;;;;4981241;28;20031;-82
2022/01/23 06:16:21;;;;;;;5.30;3.03;;;7.60;99.90;;;;;;4981644;28;20111;-81
2022/01/23 06:18:46;;;;;;;6.03;3.65;;;7.70;99.90;;;;;;4981564;28;20031;-82
2022/01/23 06:21:16;;;;;;;5.95;3.60;;;7.70;99.90;;;;;;4980764;28;20041;-80
2022/01/23 06:23:42;;;;;;;15.90;3.92;;;7.70;99.90;;;;;;4980524;28;20030;-81
2022/01/23 06:26:08;;;;;;;6.47;3.85;;;7.80;99.90;;;;;;4981978;28;20049;-81
2022/01/23 06:28:42;;;;;;;6.65;3.10;;;7.80;99.90;;;;;;4981056;28;20094;-81
2022/01/23 06:31:08;;;;;;;11.50;4.72;;;7.80;99.90;;;;;;4976348;28;20395;-81
2022/01/23 06:33:35;;;;;;;11.20;3.70;;;7.80;99.90;;;;;;4976690;28;20051;-81
2022/01/23 06:36:02;;;;;;;5.75;3.60;;;7.80;99.90;;;;;;4976381;28;20022;-81
2022/01/23 06:38:28;;;;;;;9.52;4.25;;;7.70;99.90;;;;;;4977579;28;20091;-82
2022/01/23 06:40:53;;;;;;;9.05;4.95;;;7.70;99.90;;;;;;4975727;28;20415;-81
2022/01/23 06:43:19;;;;;;;6.75;3.75;;;7.70;99.90;;;;;;4976992;28;20031;-82
2022/01/23 06:45:45;;;;;;;9.73;4.05;;;7.70;99.90;;;;;;4978310;28;20026;-82
2022/01/23 06:48:10;;;;;;;12.80;5.40;;;7.60;99.90;;;;;;4979276;28;20046;-81
2022/01/23 06:50:36;;;;;;;16.67;5.78;;;7.60;99.90;;;;;;4978986;28;20026;-82
2022/01/23 06:53:01;;;;;;;12.05;5.85;;;7.60;99.90;;;;;;4980300;28;20031;-82
2022/01/23 06:55:27;;;;;;;6.97;5.00;;;7.60;99.90;;;;;;4977515;28;20046;-82
2022/01/23 06:57:53;;;;;;;11.18;5.35;;;7.60;99.90;;;;;;4979272;28;20047;-81
2022/01/23 07:00:19;;;;;;;12.20;5.28;;;7.70;99.90;;;;;;4979323;28;20034;-81
2022/01/23 07:02:44;;;;;;;6.50;4.35;;;7.70;99.90;;;;;;4977688;28;20019;-81
2022/01/23 07:05:10;;;;;;;15.60;6.60;;;7.70;99.90;;;;;;4977857;28;20038;-82
2022/01/23 07:07:36;;;;;;;12.30;5.85;;;7.70;99.90;;;;;;4977711;28;20041;-83
2022/01/23 07:10:01;;;;;;;10.43;5.75;;;7.60;99.90;;;;;;4975600;28;20070;-82
2022/01/23 07:12:27;;;;;;;12.57;5.97;;;7.60;99.90;;;;;;4976355;28;20085;-82
2022/01/23 07:14:53;;;;;;;12.18;6.50;;;7.60;99.90;;;;;;4975873;28;20038;-82
2022/01/23 07:17:21;;;;;;;11.75;6.40;;;7.60;99.90;;;;;;4980225;28;20091;-82
2022/01/23 07:19:47;;;;;;;18.30;7.18;;;7.60;99.90;;;;;;4979171;28;20039;-81
2022/01/23 07:22:22;;;;;;;20.10;7.18;;;7.60;99.90;;;;;;4979040;28;20479;-82
2022/01/23 07:24:48;;;;;;;14.57;5.95;;;7.60;99.90;;;;;;4979168;28;20023;-83
2022/01/23 07:27:19;;;;;;;18.23;7.05;;;7.60;99.90;;;;;;4977554;28;20058;-81
2022/01/23 07:29:46;;;;;;;11.82;6.53;;;7.50;99.90;;;;;;4979549;28;20035;-80
2022/01/23 07:32:13;;;;;;;16.87;7.37;;;7.60;99.90;;;;;;4979474;28;20426;-81
2022/01/23 07:34:39;;;;;;;15.40;7.03;;;7.60;99.90;;;;;;4980908;28;20039;-81
2022/01/23 07:37:05;;;;;;;17.13;7.50;;;7.60;99.90;;;;;;4983921;28;20026;-84
2022/01/23 07:39:32;;;;;;;14.02;7.03;;;7.50;99.90;;;;;;4994955;28;20367;-81
2022/01/23 07:41:57;;;;;;;16.52;7.80;;;7.50;99.90;;;;;;5002439;28;20026;-83
2022/01/23 07:44:23;;;;;;;14.15;7.25;;;7.40;99.90;;;;;;4997857;28;20050;-82
2022/01/23 07:46:51;;;;;;;11.48;7.32;;;7.40;99.90;;;;;;5000689;28;20053;-82
2022/01/23 07:49:18;;;;;;;13.57;7.47;;;7.50;99.90;;;;;;5001644;28;20043;-81
2022/01/23 07:51:44;;;;;;;14.65;7.18;;;7.60;99.90;;;;;;4996482;28;20512;-82
2022/01/23 07:54:09;;;;;;;15.88;7.28;;;7.60;99.90;;;;;;4996780;28;20086;-82
2022/01/23 07:56:37;;;;;;;15.82;7.20;;;7.60;99.90;;;;;;4996989;28;20038;-80
2022/01/23 07:59:03;;;;;;;11.27;6.65;;;7.50;99.90;;;;;;5000072;28;20022;-82
2022/01/23 08:01:30;;;;;;;13.27;6.72;;;7.50;99.90;;;;;;5000357;28;20467;-81
2022/01/23 08:03:55;;;;;;;17.13;7.95;;;7.60;99.90;;;;;;5001139;28;20026;-82
2022/01/23 08:06:26;;;;;;;15.07;8.05;;;7.60;99.90;;;;;;4997282;28;20458;-81
2022/01/23 08:08:52;;;;;;;16.23;7.15;;;7.60;99.90;;;;;;5000019;28;20034;-81
2022/01/23 08:11:17;;;;;;;18.98;7.75;;;7.60;99.90;;;;;;5006933;28;20116;-82
2022/01/23 08:13:44;;;;;;;9.75;6.10;;;7.70;99.90;;;;;;5014516;28;20069;-82
2022/01/23 08:16:10;;;;;;;22.75;7.20;;;7.70;99.90;;;;;;5016404;28;20026;-82
2022/01/23 08:18:36;;;;;;;15.10;6.75;;;7.70;99.90;;;;;;5015731;28;20056;-81
2022/01/23 08:21:01;;;;;;;13.18;6.32;;;7.60;99.90;;;;;;5017226;28;20022;-82
2022/01/23 08:23:28;;;;;;;14.48;6.72;;;7.60;99.90;;;;;;5017966;28;20022;-81
2022/01/23 08:25:54;;;;;;;9.88;6.05;;;7.70;99.90;;;;;;5017541;28;20038;-82
2022/01/23 08:28:20;;;;;;;10.23;5.50;;;7.60;99.90;;;;;;5020457;28;20022;-80
2022/01/23 08:30:45;;;;;;;12.13;5.65;;;7.70;99.90;;;;;;5011340;28;20018;-79
2022/01/23 08:33:11;;;;;;;20.95;6.47;;;7.70;99.90;;;;;;5001740;28;20027;-80
2022/01/23 08:35:37;;;;;;;19.13;7.13;;;7.80;99.90;;;;;;5002327;28;20039;-79
2022/01/23 08:38:03;;;;;;;21.67;6.68;;;7.80;99.90;;;;;;5002526;28;20019;-81
2022/01/23 08:43:21;;;;;;;17.77;6.75;;;7.80;99.90;;;;;;5014225;28;20086;-80
2022/01/23 08:45:46;;;;;;;11.30;6.68;;;7.90;99.90;;;;;;5004706;28;20046;-81
2022/01/23 08:48:31;;;;;;;11.98;5.72;;;8.00;99.90;;;;;;5002388;28;20039;-81
2022/01/23 08:50:57;;;;;;;14.98;6.88;;;8.00;99.90;;;;;;5002387;28;20011;-79
2022/01/23 08:53:23;;;;;;;15.70;7.07;;;8.00;99.90;;;;;;5006956;28;20042;-80
2022/01/23 08:55:49;;;;;;;15.98;7.10;;;8.00;99.90;;;;;;5022080;28;20014;-80
2022/01/23 08:58:16;;;;;;;15.00;7.88;;;8.00;99.90;;;;;;5017590;28;20030;-80
2022/01/23 09:00:42;;;;;;;13.55;7.85;;;8.00;99.90;;;;;;5000548;28;20029;-82
2022/01/23 09:03:08;;;;;;;13.65;7.13;;;8.00;99.90;;;;;;5000129;28;20019;-79
2022/01/23 09:05:34;;;;;;;13.45;6.78;;;8.00;99.90;;;;;;5000940;28;20050;-78
2022/01/23 09:08:00;;;;;;;18.63;7.57;;;8.10;99.90;;;;;;4997668;28;20027;-80
2022/01/23 09:10:28;;;;;;;15.90;6.93;;;8.10;99.90;;;;;;5001289;28;20022;-83
2022/01/23 09:13:12;;;;;;;;;;;8.10;99.90;;;;;;4998277;28;20042;-80
2022/01/23 09:15:37;;;;;;;11.93;6.43;;;8.10;99.90;;;;;;4999957;28;19902;-80
2022/01/23 09:18:03;;;;;;;12.25;7.00;;;8.10;99.90;;;;;;5001502;28;20018;-81
2022/01/23 09:20:29;;;;;;;15.57;6.93;;;8.10;99.90;;;;;;5001834;28;20031;-80
2022/01/23 09:22:55;;;;;;;12.38;6.03;;;8.10;99.90;;;;;;5001976;28;20046;-79
2022/01/23 09:25:21;;;;;;;12.88;7.63;;;8.10;99.90;;;;;;5000996;28;20098;-80
2022/01/23 09:27:47;;;;;;;14.80;6.82;;;8.20;99.90;;;;;;5001667;28;20070;-80
2022/01/23 09:30:17;;;;;;;15.20;8.38;;;8.20;99.90;;;;;;5001809;28;20062;-81
2022/01/23 09:32:44;;;;;;;19.40;7.45;;;8.20;99.90;;;;;;4994110;28;20128;-81
2022/01/23 09:35:22;;;;;;;20.85;7.88;;;8.30;99.90;;;;;;5007555;28;20036;-80
2022/01/23 09:37:48;;;;;;;14.98;7.13;;;8.30;99.90;;;;;;5000518;28;20026;-80
2022/01/23 09:40:14;;;;;;;14.55;7.20;;;8.30;99.90;;;;;;5001110;28;20007;-80
2022/01/23 09:42:49;;;;;;;12.23;7.03;;;8.40;99.90;;;;;;5000711;28;20007;-80
2022/01/23 09:45:15;;;;;;;15.02;7.43;;;8.40;99.90;;;;;;5018191;28;20022;-83
2022/01/23 09:47:42;;;;;;;18.95;8.38;;;8.40;99.90;;;;;;5019446;28;20747;-82
2022/01/23 09:50:12;;;;;;;18.30;8.10;;;8.40;99.90;;;;;;5019437;28;20049;-82
2022/01/23 09:52:38;;;;;;;16.42;8.23;;;8.50;99.90;;;;;;5019811;28;20057;-82
2022/01/23 09:55:10;;;;;;;16.85;7.30;;;8.50;99.90;;;;;;5017277;28;20019;-83
2022/01/23 09:57:39;;;;;;;16.83;8.50;;;8.50;99.90;;;;;;5017269;28;20066;-81
2022/01/23 10:00:11;;;;;;;16.35;8.35;;;8.50;99.90;;;;;;5016593;28;20098;-82
2022/01/23 10:02:37;;;;;;;13.70;7.55;;;8.50;99.90;;;;;;5010592;28;20031;-81
2022/01/23 10:05:04;;;;;;;19.15;9.15;;;8.60;99.90;;;;;;5006280;28;20034;-82
2022/01/23 10:07:40;;;;;;;20.02;7.68;;;8.60;99.90;;;;;;5005635;28;20030;-83
2022/01/23 10:10:11;;;;;;;16.77;8.10;;;8.70;99.90;;;;;;5004695;28;20045;-81
2022/01/23 10:12:42;;;;;;;27.17;11.05;;;8.70;99.90;;;;;;5005077;28;20034;-83
2022/01/23 10:15:09;;;;;;;44.80;16.80;;;8.70;99.90;;;;;;5004779;28;20061;-81
2022/01/23 10:17:35;;;;;;;29.10;13.93;;;8.70;99.90;;;;;;4999241;28;20495;-84
2022/01/23 10:20:03;;;;;;;18.67;9.50;;;8.70;99.90;;;;;;5001999;28;20089;-84
2022/01/23 10:22:30;;;;;;;18.98;9.40;;;8.70;99.90;;;;;;4999306;28;20026;-84
2022/01/23 10:25:30;;;;;;;20.98;9.43;;;8.70;99.90;;;;;;4998599;28;20034;-84
2022/01/23 10:28:03;;;;;;;18.55;7.70;;;8.70;99.90;;;;;;4975670;28;20038;-85
2022/01/23 10:30:31;;;;;;;21.30;8.25;;;8.70;99.90;;;;;;4996321;28;20031;-80
2022/01/23 10:33:00;;;;;;;21.15;8.85;;;8.70;99.90;;;;;;4995272;28;20129;-80
2022/01/23 10:35:27;;;;;;;31.02;16.33;;;8.70;99.90;;;;;;4994542;28;20064;-80
2022/01/23 10:37:54;;;;;;;20.60;10.30;;;8.80;99.90;;;;;;4976642;28;20045;-79
2022/01/23 10:40:36;;;;;;;21.50;8.90;;;8.80;99.90;;;;;;4977428;28;20019;-80
2022/01/23 10:48:40;;;;;;;18.52;7.53;;;8.90;99.90;;;;;;4977311;28;20045;-81
2022/01/23 10:51:39;;;;;;;21.85;8.30;;;8.90;99.90;;;;;;4976900;28;20091;-81
2022/01/23 10:54:11;;;;;;;21.75;9.70;;;8.90;99.90;;;;;;4976881;28;20435;-81
2022/01/23 10:56:57;;;;;;;23.52;9.68;;;8.90;99.90;;;;;;4974909;28;20031;-81
2022/01/23 10:59:23;;;;;;;22.00;8.25;;;9.00;99.90;;;;;;4975238;28;20487;-81
2022/01/23 11:02:10;;;;;;;23.83;10.27;;;9.00;99.90;;;;;;4976454;28;20027;-82
2022/01/23 11:04:56;;;;;;;20.07;8.73;;;9.10;99.90;;;;;;4977174;28;20039;-80
2022/01/23 11:07:24;;;;;;;17.20;7.97;;;9.10;99.90;;;;;;4976040;28;20112;-80
2022/01/23 11:10:07;;;;;;;19.35;8.65;;;9.10;99.90;;;;;;4974982;28;20059;-81
2022/01/23 11:18:07;;;;;;;16.85;8.82;;;9.20;99.90;;;;;;4975601;28;20046;-80
2022/01/23 11:20:48;;;;;;;19.88;9.60;;;9.30;99.90;;;;;;4974033;28;20026;-81
2022/01/23 11:23:23;;;;;;;18.02;9.32;;;9.30;99.90;;;;;;4973649;28;20138;-80
2022/01/23 11:25:51;;;;;;;23.23;9.13;;;9.30;99.90;;;;;;4975180;28;20027;-80
2022/01/23 11:28:17;;;;;;;29.38;9.48;;;9.30;99.90;;;;;;4975307;28;20402;-80
2022/01/23 11:30:48;;;;;;;15.77;9.20;;;9.30;99.90;;;;;;4976483;28;20031;-81
2022/01/23 11:33:17;;;;;;;21.75;9.07;;;9.30;99.90;;;;;;4975231;28;20399;-79
2022/01/23 11:35:44;;;;;;;22.73;10.45;;;9.30;99.90;;;;;;4976198;28;20034;-79
2022/01/23 11:38:14;;;;;;;27.08;9.65;;;9.30;99.90;;;;;;4976009;28;20087;-81
2022/01/23 11:54:00;;;;;;;20.75;9.88;;;9.40;99.90;;;;;;5070363;28;20037;-41
2022/01/23 11:56:27;;;;;;;19.98;9.48;;;9.50;99.90;;;;;;5070112;28;20028;-38
2022/01/23 12:01:39;;;;;;;16.48;8.15;;;9.40;99.90;;;;;;5070124;28;20108;-42
2022/01/23 12:04:08;;;;;;;19.23;8.73;;;9.40;99.90;;;;;;5070036;28;20102;-42
2022/01/23 12:06:35;;;;;;;17.20;8.95;;;9.40;99.90;;;;;;5069852;28;20029;-42
2022/01/23 12:09:13;;;;;;;16.42;9.00;;;9.50;99.90;;;;;;5068665;28;20132;-40
2022/01/23 12:11:58;;;;;;;13.15;7.32;;;9.50;99.90;;;;;;5070061;28;20504;-41
2022/01/23 12:17:03;;;;;;;22.38;8.13;;;9.40;99.90;;;;;;5069917;28;20037;-41
2022/01/23 12:19:31;;;;;;;18.15;6.70;;;9.40;99.90;;;;;;5069651;28;20555;-41
2022/01/23 12:22:01;;;;;;;18.80;7.07;;;9.50;99.90;;;;;;5069614;28;20029;-44
2022/01/23 12:24:27;;;;;;;17.48;7.22;;;9.50;99.90;;;;;;5069572;28;20025;-42
2022/01/23 12:27:17;;;;;;;13.57;7.05;;;9.50;99.90;;;;;;5069411;28;20025;-44
2022/01/23 12:29:42;;;;;;;12.65;6.18;;;9.50;99.90;;;;;;5069527;28;20488;-44
2022/01/23 12:32:19;;;;;;;12.90;6.40;;;9.40;99.90;;;;;;5069439;28;20032;-42
2022/01/23 12:34:51;;;;;;;15.57;6.50;;;9.40;99.90;;;;;;5069455;28;20025;-41
2022/01/23 12:37:17;;;;;;;17.60;6.35;;;9.40;99.90;;;;;;5051875;28;20025;-41
2022/01/23 12:39:43;;;;;;;9.60;5.47;;;9.50;99.90;;;;;;5049282;28;20029;-41
2022/01/23 12:42:09;;;;;;;13.35;7.07;;;9.50;99.90;;;;;;5048067;28;20026;-41
2022/01/23 12:44:39;;;;;;;17.75;6.63;;;9.40;99.90;;;;;;5049182;28;20505;-41
2022/01/23 12:47:16;;;;;;;11.10;6.20;;;9.40;99.90;;;;;;5049164;28;20025;-41
2022/01/23 12:49:52;;;;;;;14.98;5.93;;;9.40;99.90;;;;;;5048803;28;20049;-43
2022/01/23 12:52:22;;;;;;;12.38;5.72;;;9.40;99.90;;;;;;5048989;28;20033;-40
2022/01/23 12:54:48;;;;;;;22.85;6.65;;;9.40;99.90;;;;;;5048970;28;20052;-41
2022/01/23 12:57:21;;;;;;;12.85;6.88;;;9.40;99.90;;;;;;5049200;28;20041;-42
2022/01/23 12:59:56;;;;;;;11.90;6.47;;;9.40;99.90;;;;;;5049201;28;20045;-40
2022/01/23 13:02:24;;;;;;;14.40;5.53;;;9.40;99.90;;;;;;5037966;28;20033;-41
2022/01/23 13:04:52;;;;;;;13.32;6.70;;;9.40;99.90;;;;;;5035779;28;20500;-41
2022/01/23 13:07:51;;;;;;;13.88;7.45;;;9.40;99.90;;;;;;5035858;28;20063;-41
2022/01/23 13:12:53;;;;;;;11.13;6.15;;;9.40;99.90;;;;;;5035801;28;20034;-41
2022/01/23 13:15:38;;;;;;;16.08;7.47;;;9.40;99.90;;;;;;5035346;28;20048;-42
2022/01/23 13:31:46;;;;;;;14.25;7.78;;;9.40;99.90;;;;;;5035172;28;20034;-44
2022/01/23 13:34:23;;;;;;;15.15;8.05;;;9.30;99.90;;;;;;5035312;28;20026;-41
2022/01/23 13:37:12;;;;;;;11.90;6.60;;;9.40;99.90;;;;;;5034766;28;20425;-43
2022/01/23 13:39:45;;;;;;;17.02;7.18;;;9.30;99.90;;;;;;5034966;28;20044;-39
2022/01/23 13:59:29;;;;;;;17.00;8.55;;;9.20;99.90;;;;;;5034579;28;20539;-40
2022/01/23 14:04:29;;;;;;;31.70;17.73;;;9.20;99.90;;;;;;5033282;28;20034;-43
2022/01/23 14:06:55;;;;;;;23.60;10.95;;;9.20;99.90;;;;;;5034464;28;20063;-41
2022/01/23 14:09:26;;;;;;;17.05;8.70;;;9.20;99.90;;;;;;5034250;28;20037;-47
2022/01/23 14:11:51;;;;;;;20.33;9.48;;;9.20;99.90;;;;;;5034371;28;20423;-42
2022/01/23 14:14:25;;;;;;;22.80;8.60;;;9.20;99.90;;;;;;5033302;28;20124;-44
2022/01/23 14:16:53;;;;;;;17.52;8.68;;;9.20;99.90;;;;;;5034129;28;20033;-43
2022/01/23 14:19:21;;;;;;;18.70;9.23;;;9.30;99.90;;;;;;5034040;28;20067;-46
2022/01/23 14:21:50;;;;;;;18.38;8.68;;;9.40;99.90;;;;;;5032969;28;20535;-46
2022/01/23 14:24:32;;;;;;;28.67;9.52;;;9.40;99.90;;;;;;5032813;28;20549;-41
2022/01/23 14:27:13;;;;;;;17.60;8.98;;;9.40;99.90;;;;;;5034275;28;20533;-47
2022/01/23 14:29:50;;;;;;;19.17;8.02;;;9.40;99.90;;;;;;5033935;28;20108;-42
2022/01/23 14:32:25;;;;;;;18.52;10.10;;;9.40;99.90;;;;;;5033784;28;20026;-41
2022/01/23 14:35:16;;;;;;;16.92;9.05;;;9.30;99.90;;;;;;5032188;28;20040;-44
2022/01/23 14:37:44;;;;;;;19.55;8.80;;;9.30;99.90;;;;;;5032538;28;20032;-42
2022/01/23 14:40:16;;;;;;;18.60;8.43;;;9.40;99.90;;;;;;5033976;28;20049;-43
2022/01/23 14:43:10;;;;;;;19.67;9.93;;;9.30;99.90;;;;;;5033593;28;20108;-39
2022/01/23 14:45:39;;;;;;;16.25;8.32;;;9.30;99.90;;;;;;5034004;28;20025;-41
2022/01/23 14:48:06;;;;;;;14.27;8.23;;;9.20;99.90;;;;;;5033816;28;20029;-42
2022/01/23 14:50:34;;;;;;;21.75;8.90;;;9.20;99.90;;;;;;5033310;28;20045;-41
2022/01/23 14:53:13;;;;;;;21.98;9.20;;;9.20;99.90;;;;;;5033846;28;20485;-43
2022/01/23 14:55:46;;;;;;;16.00;8.73;;;9.20;99.90;;;;;;5033385;28;20033;-43
2022/01/23 14:58:14;;;;;;;21.17;11.40;;;9.20;99.90;;;;;;5033317;28;20029;-49
2022/01/23 15:00:40;;;;;;;16.40;8.57;;;9.20;99.90;;;;;;5033357;28;20075;-42
2022/01/23 15:03:07;;;;;;;16.77;8.70;;;9.20;99.90;;;;;;5033178;28;20152;-40
2022/01/23 15:05:51;;;;;;;32.15;13.70;;;9.20;99.90;;;;;;5033283;28;20454;-44
2022/01/23 15:08:23;;;;;;;20.02;10.40;;;9.10;99.90;;;;;;5033353;28;20555;-40
2022/01/23 15:10:52;;;;;;;19.95;9.32;;;9.20;99.90;;;;;;5031756;28;20029;-42
2022/01/23 15:13:19;;;;;;;;;;;9.10;99.90;;;;;;5032304;28;20036;-41
2022/01/23 15:15:45;;;;;;;17.50;8.63;;;9.10;99.90;;;;;;5033289;28;20002;-41
2022/01/23 15:18:13;;;;;;;20.33;9.20;;;9.10;99.90;;;;;;5033014;28;20500;-40
2022/01/23 15:20:40;;;;;;;16.65;9.13;;;9.10;99.90;;;;;;5033261;28;20481;-42
2022/01/23 15:23:06;;;;;;;15.23;9.02;;;9.10;99.90;;;;;;5033183;28;20033;-44
2022/01/23 15:25:32;;;;;;;17.38;9.50;;;9.10;99.90;;;;;;5033058;28;20026;-42
2022/01/23 15:27:58;;;;;;;22.50;10.50;;;9.10;99.90;;;;;;5031451;28;20130;-42
2022/01/23 15:30:25;;;;;;;16.23;8.73;;;9.00;99.90;;;;;;5033062;28;20438;-39
2022/01/23 15:32:52;;;;;;;29.08;13.50;;;8.90;99.90;;;;;;5033119;28;20512;-41
2022/01/23 15:35:20;;;;;;;21.67;10.18;;;8.90;99.90;;;;;;5032817;28;20032;-41
2022/01/23 15:37:46;;;;;;;13.02;7.82;;;8.90;99.90;;;;;;5032935;28;20040;-43
2022/01/23 15:40:15;;;;;;;15.32;8.15;;;8.90;99.90;;;;;;5033039;28;20029;-43
2022/01/23 15:42:42;;;;;;;15.35;8.23;;;8.90;99.90;;;;;;5032966;28;20029;-42
2022/01/23 15:45:09;;;;;;;23.13;9.82;;;9.00;99.90;;;;;;5032872;28;20108;-41
2022/01/23 15:47:35;;;;;;;19.73;8.63;;;9.00;99.90;;;;;;5032808;28;20029;-42
2022/01/23 15:50:03;;;;;;;15.73;7.72;;;8.90;99.90;;;;;;5032450;28;20053;-43
2022/01/23 15:52:29;;;;;;;17.02;8.30;;;8.90;99.90;;;;;;5032895;28;20436;-43
2022/01/23 15:54:55;;;;;;;17.58;9.20;;;8.90;99.90;;;;;;5032552;28;20116;-47
2022/01/23 15:57:20;;;;;;;14.95;8.07;;;8.90;99.90;;;;;;5032692;28;20044;-43
2022/01/23 15:59:46;;;;;;;16.75;8.02;;;8.90;99.90;;;;;;5032516;28;20028;-39
2022/01/23 16:02:13;;;;;;;16.80;8.10;;;8.80;99.90;;;;;;5032829;28;20033;-45
2022/01/23 16:04:39;;;;;;;17.50;8.48;;;8.80;99.90;;;;;;5032453;28;20033;-40
2022/01/23 16:07:07;;;;;;;18.23;8.60;;;8.80;99.90;;;;;;5032537;28;20026;-42
2022/01/23 16:09:34;;;;;;;17.48;9.55;;;8.70;99.90;;;;;;5032310;28;20038;-42
2022/01/23 16:12:00;;;;;;;15.35;8.00;;;8.70;99.90;;;;;;5032390;28;20030;-40
2022/01/23 16:14:25;;;;;;;20.95;9.40;;;8.70;99.90;;;;;;5032670;28;20022;-40
2022/01/23 16:16:51;;;;;;;15.05;8.60;;;8.60;99.90;;;;;;5032237;28;20105;-41
2022/01/23 16:19:17;;;;;;;17.27;10.13;;;8.60;99.90;;;;;;5032281;28;20032;-48
2022/01/23 16:21:44;;;;;;;18.92;9.20;;;8.60;99.90;;;;;;5032537;28;20026;-42
2022/01/23 16:24:10;;;;;;;25.73;10.65;;;8.60;99.90;;;;;;5032387;28;20075;-42
2022/01/23 16:26:36;;;;;;;18.95;8.90;;;8.50;99.90;;;;;;5014804;28;20025;-41
2022/01/23 16:29:02;;;;;;;20.17;9.82;;;8.60;99.90;;;;;;5032257;28;20052;-41
2022/01/23 16:31:28;;;;;;;17.67;9.50;;;8.60;99.90;;;;;;5032300;28;20493;-41
2022/01/23 16:33:53;;;;;;;19.23;10.35;;;8.60;99.90;;;;;;5030991;28;20037;-41
2022/01/23 16:36:19;;;;;;;19.77;10.60;;;8.60;99.90;;;;;;5032883;28;20028;-41
2022/01/23 16:38:45;;;;;;;17.63;9.50;;;8.50;99.90;;;;;;5036200;28;20021;-41
2022/01/23 16:41:11;;;;;;;19.02;10.02;;;8.50;99.90;;;;;;5036252;28;20064;-41